Time;durP1;ratioP1;P1;durP2;ratioP2;P2;SDS_P1;SDS_P2;PMS_P1;PMS_P2;Temp;Humidity;BMP_temperature;BMP_pressure;BME280_temperature;BME280_humidity;BME280_pressure;Samples;Min_cycle;Max_cycle;Signal;HPM_P1;HPM_P2
2022/05/23 00:00:26;;;;;;;0.60;0.60;;;13.80;83.10;;;;;;5070610;28;20203;-59
2022/05/23 00:02:55;;;;;;;0.57;0.57;;;13.80;83.30;;;;;;5069683;28;20268;-59
2022/05/23 00:05:22;;;;;;;0.80;0.77;;;13.80;83.40;;;;;;5070346;28;20196;-59
2022/05/23 00:07:50;;;;;;;0.80;0.80;;;13.80;83.60;;;;;;5068362;28;20222;-59
2022/05/23 00:10:20;;;;;;;1.10;0.90;;;13.80;83.70;;;;;;5070172;28;20198;-59
2022/05/23 00:12:47;;;;;;;0.93;0.93;;;13.70;83.70;;;;;;5070306;28;20321;-59
2022/05/23 00:15:15;;;;;;;0.87;0.87;;;13.70;83.80;;;;;;5069907;28;20214;-59
2022/05/23 00:17:43;;;;;;;1.00;1.00;;;13.70;84.00;;;;;;5070697;28;20242;-59
2022/05/23 00:20:16;;;;;;;1.03;1.00;;;13.70;84.10;;;;;;5070261;28;20192;-59
2022/05/23 00:22:43;;;;;;;1.23;1.13;;;13.70;84.10;;;;;;5068160;28;20193;-59
2022/05/23 00:25:11;;;;;;;1.30;1.20;;;13.70;84.20;;;;;;5070386;28;20222;-59
2022/05/23 00:27:42;;;;;;;1.40;1.30;;;13.60;84.20;;;;;;5070122;28;20604;-59
2022/05/23 00:30:16;;;;;;;2.37;1.60;;;13.60;84.30;;;;;;5070364;28;20198;-59
2022/05/23 00:35:30;;;;;;;1.53;1.43;;;13.60;84.50;;;;;;5070397;28;20214;-59
2022/05/23 00:37:58;;;;;;;1.80;1.70;;;13.50;84.50;;;;;;5068287;28;20340;-59
2022/05/23 00:40:47;;;;;;;1.40;1.30;;;13.50;84.60;;;;;;5069437;28;20614;-59
2022/05/23 00:43:20;;;;;;;1.40;1.30;;;13.50;84.60;;;;;;5070471;28;20189;-59
2022/05/23 00:45:50;;;;;;;1.40;1.30;;;13.50;84.80;;;;;;5070368;28;20187;-59
2022/05/23 00:48:20;;;;;;;2.53;1.60;;;13.50;84.90;;;;;;5069480;28;20641;-59
2022/05/23 00:50:53;;;;;;;1.60;1.50;;;13.40;84.90;;;;;;5069451;28;20613;-59
2022/05/23 00:53:29;;;;;;;1.30;1.20;;;13.40;85.00;;;;;;5066809;28;20297;-59
2022/05/23 00:55:58;;;;;;;1.70;1.33;;;13.40;85.10;;;;;;5069528;28;20214;-59
2022/05/23 00:58:29;;;;;;;1.27;1.17;;;13.40;85.20;;;;;;5069300;28;20240;-59
2022/05/23 01:01:01;;;;;;;1.33;1.23;;;13.40;85.20;;;;;;5069372;28;20201;-59
2022/05/23 01:03:30;;;;;;;1.57;1.47;;;13.40;85.30;;;;;;5064836;28;20208;-59
2022/05/23 01:05:58;;;;;;;2.40;1.30;;;13.40;85.30;;;;;;5065335;28;20558;-59
2022/05/23 01:08:26;;;;;;;1.80;1.70;;;13.40;85.40;;;;;;5066897;28;20269;-59
2022/05/23 01:10:54;;;;;;;1.80;1.70;;;13.40;85.50;;;;;;5067523;28;20605;-59
2022/05/23 01:13:22;;;;;;;1.80;1.70;;;13.40;85.40;;;;;;5068866;28;20288;-59
2022/05/23 01:15:51;;;;;;;1.80;1.50;;;13.40;85.40;;;;;;5069331;28;20194;-59
2022/05/23 01:18:20;;;;;;;1.30;1.20;;;13.40;85.60;;;;;;5068700;28;20653;-59
2022/05/23 01:20:52;;;;;;;1.50;1.30;;;13.30;85.60;;;;;;5067463;28;20193;-59
2022/05/23 01:23:30;;;;;;;2.03;1.50;;;13.30;85.70;;;;;;5066767;28;20229;-59
2022/05/23 01:26:25;;;;;;;1.70;1.60;;;13.30;85.90;;;;;;5069295;28;20654;-59
2022/05/23 01:28:55;;;;;;;1.80;1.70;;;13.30;85.90;;;;;;5067921;28;20202;-59
2022/05/23 01:31:48;;;;;;;1.50;1.40;;;13.30;85.90;;;;;;5072295;28;20248;-59
2022/05/23 01:34:24;;;;;;;1.27;1.17;;;13.30;85.80;;;;;;5072248;28;20212;-59
2022/05/23 01:37:01;;;;;;;1.40;1.30;;;13.30;86.00;;;;;;5073176;28;20653;-59
2022/05/23 01:39:33;;;;;;;1.33;1.23;;;13.30;86.10;;;;;;5070870;28;20611;-59
2022/05/23 01:42:02;;;;;;;0.90;0.90;;;13.30;86.20;;;;;;5105254;28;20732;-59
2022/05/23 01:44:32;;;;;;;1.30;1.20;;;13.20;86.20;;;;;;5071848;28;20626;-59
2022/05/23 01:47:13;;;;;;;1.33;1.23;;;13.20;86.30;;;;;;5071273;28;20233;-59
2022/05/23 01:50:00;;;;;;;1.00;1.00;;;13.20;86.60;;;;;;5071880;28;20202;-59
2022/05/23 01:52:39;;;;;;;1.00;1.00;;;13.10;86.60;;;;;;5069430;28;20223;-59
2022/05/23 01:55:16;;;;;;;0.80;0.80;;;13.10;86.80;;;;;;5070822;28;20206;-59
2022/05/23 01:58:03;;;;;;;1.00;1.00;;;13.10;86.90;;;;;;5071470;28;20672;-59
2022/05/23 02:03:14;;;;;;;1.80;1.23;;;13.10;87.10;;;;;;5067795;28;20684;-59
2022/05/23 02:05:42;;;;;;;1.33;1.23;;;13.10;87.20;;;;;;5071217;28;20195;-59
2022/05/23 02:08:09;;;;;;;1.00;1.00;;;13.10;87.30;;;;;;5102281;28;20207;-59
2022/05/23 02:10:37;;;;;;;1.37;1.10;;;13.10;87.60;;;;;;5071587;28;20210;-59
2022/05/23 02:13:09;;;;;;;1.17;1.07;;;13.00;87.60;;;;;;5070815;28;20229;-59
2022/05/23 02:15:37;;;;;;;1.10;1.10;;;13.00;87.70;;;;;;5072783;28;20301;-59
2022/05/23 02:18:22;;;;;;;0.97;0.97;;;13.10;87.90;;;;;;5072441;28;20201;-59
2022/05/23 02:20:52;;;;;;;1.10;1.10;;;13.10;87.90;;;;;;5072053;28;20197;-59
2022/05/23 02:23:19;;;;;;;1.17;1.13;;;13.10;88.00;;;;;;5063713;28;20565;-59
2022/05/23 02:25:46;;;;;;;1.30;1.20;;;13.10;88.00;;;;;;5070871;28;20524;-59
2022/05/23 02:28:43;;;;;;;1.37;1.27;;;13.10;88.00;;;;;;5070623;28;20221;-59
2022/05/23 02:31:17;;;;;;;2.33;1.30;;;13.10;88.00;;;;;;5070535;28;20217;-59
2022/05/23 02:33:54;;;;;;;1.00;1.00;;;13.20;88.20;;;;;;5104100;28;20710;-59
2022/05/23 02:36:48;;;;;;;1.00;1.00;;;13.10;88.10;;;;;;5063856;28;20211;-59
2022/05/23 02:39:18;;;;;;;1.27;1.17;;;13.10;88.30;;;;;;5068433;28;20308;-59
2022/05/23 02:41:50;;;;;;;1.00;1.00;;;13.10;88.30;;;;;;5069696;28;20213;-60
2022/05/23 02:44:21;;;;;;;1.03;1.00;;;13.20;88.40;;;;;;5070559;28;20658;-59
2022/05/23 02:46:48;;;;;;;1.00;1.00;;;13.20;88.50;;;;;;5072131;28;20629;-59
2022/05/23 02:49:19;;;;;;;0.87;0.87;;;13.20;88.60;;;;;;5070050;28;20202;-59
2022/05/23 02:51:48;;;;;;;1.10;1.10;;;13.20;88.60;;;;;;5103734;28;20207;-59
2022/05/23 02:54:16;;;;;;;1.50;1.40;;;13.20;88.60;;;;;;5068725;28;20242;-60
2022/05/23 02:56:51;;;;;;;1.10;1.07;;;13.20;88.70;;;;;;5102840;27;20202;-60
2022/05/23 02:59:24;;;;;;;1.50;1.40;;;13.20;88.70;;;;;;5069906;28;20237;-59
2022/05/23 03:04:45;;;;;;;1.00;1.00;;;13.10;89.00;;;;;;5070057;28;20223;-59
2022/05/23 03:07:16;;;;;;;1.13;1.00;;;13.10;89.00;;;;;;5067807;28;20297;-59
2022/05/23 03:09:54;;;;;;;1.00;1.00;;;13.10;89.20;;;;;;5070105;28;20659;-59
2022/05/23 03:12:21;;;;;;;1.00;1.00;;;13.00;89.70;;;;;;5070612;28;20209;-59
2022/05/23 03:14:50;;;;;;;1.10;1.10;;;13.00;89.40;;;;;;5103813;28;20210;-59
2022/05/23 03:17:17;;;;;;;1.27;1.17;;;13.00;89.50;;;;;;5071055;28;20195;-59
2022/05/23 03:19:46;;;;;;;1.20;1.10;;;13.00;89.70;;;;;;5069764;28;20558;-60
2022/05/23 03:28:01;;;;;;;1.23;1.17;;;13.00;90.00;;;;;;5031400;28;20195;-59
2022/05/23 03:30:33;;;;;;;1.10;1.10;;;13.00;90.00;;;;;;5032409;28;20207;-59
2022/05/23 03:33:00;;;;;;;1.17;1.10;;;13.00;90.00;;;;;;5059073;28;20227;-59
2022/05/23 03:35:30;;;;;;;1.50;1.40;;;13.10;90.10;;;;;;5071079;28;20554;-59
2022/05/23 03:37:58;;;;;;;1.50;1.40;;;13.00;90.10;;;;;;5064403;28;20206;-59
2022/05/23 03:40:26;;;;;;;1.50;1.40;;;13.00;90.10;;;;;;5069156;28;20579;-59
2022/05/23 03:42:57;;;;;;;2.40;1.40;;;13.00;90.10;;;;;;5068883;28;20205;-59
2022/05/23 03:45:25;;;;;;;1.30;1.20;;;13.00;90.20;;;;;;5069575;28;20568;-59
2022/05/23 03:47:55;;;;;;;1.50;1.40;;;13.00;90.30;;;;;;5068806;28;20273;-59
2022/05/23 03:50:26;;;;;;;1.60;1.50;;;13.00;90.40;;;;;;5069355;28;20198;-59
2022/05/23 03:52:56;;;;;;;1.40;1.30;;;13.10;90.40;;;;;;5066186;28;20246;-59
2022/05/23 03:55:27;;;;;;;1.00;0.90;;;13.10;90.40;;;;;;5069571;28;20259;-59
2022/05/23 03:58:15;;;;;;;1.20;1.20;;;13.00;90.50;;;;;;5069744;28;20570;-59
2022/05/23 04:00:49;;;;;;;1.40;1.30;;;13.10;90.60;;;;;;5096654;28;20206;-59
2022/05/23 04:03:18;;;;;;;1.20;1.20;;;13.10;90.60;;;;;;5067524;28;20268;-59
2022/05/23 04:05:46;;;;;;;2.63;1.03;;;13.10;90.70;;;;;;5069133;28;20190;-59
2022/05/23 04:08:21;;;;;;;0.90;0.90;;;13.20;90.70;;;;;;5065159;28;20204;-59
2022/05/23 04:10:53;;;;;;;1.27;1.27;;;13.20;90.80;;;;;;5069075;28;20206;-59
2022/05/23 04:13:20;;;;;;;1.30;1.20;;;13.20;90.80;;;;;;5065965;28;20214;-59
2022/05/23 04:15:48;;;;;;;1.10;1.10;;;13.20;90.80;;;;;;5070035;28;20199;-59
2022/05/23 04:18:16;;;;;;;2.23;1.80;;;13.20;90.80;;;;;;5068638;28;20256;-59
2022/05/23 04:20:44;;;;;;;1.70;1.40;;;13.20;90.80;;;;;;5068805;28;20558;-59
2022/05/23 04:23:17;;;;;;;1.53;1.40;;;13.30;90.90;;;;;;5067182;28;20682;-59
2022/05/23 04:25:49;;;;;;;1.70;1.47;;;13.30;90.90;;;;;;5075896;28;20289;-59
2022/05/23 04:28:19;;;;;;;2.03;1.50;;;13.30;90.90;;;;;;5068451;28;20568;-59
2022/05/23 04:30:46;;;;;;;1.90;1.70;;;13.30;90.90;;;;;;5102697;28;20210;-59
2022/05/23 04:36:05;;;;;;;1.80;1.43;;;13.40;90.90;;;;;;5068224;28;20209;-59
2022/05/23 04:38:41;;;;;;;2.57;1.97;;;13.40;91.00;;;;;;5066690;28;20207;-59
2022/05/23 04:41:09;;;;;;;1.87;1.70;;;13.50;91.10;;;;;;5067914;28;20218;-59
2022/05/23 04:43:58;;;;;;;1.77;1.67;;;13.50;91.10;;;;;;5067957;28;20210;-59
2022/05/23 04:46:26;;;;;;;1.73;1.60;;;13.60;91.20;;;;;;5068135;28;20339;-58
2022/05/23 04:52:08;;;;;;;1.30;1.20;;;13.60;91.40;;;;;;5063402;28;20206;-59
2022/05/23 04:54:42;;;;;;;1.60;1.50;;;13.70;91.60;;;;;;5067793;28;20305;-59
2022/05/23 04:57:11;;;;;;;1.50;1.40;;;13.80;91.70;;;;;;5067738;28;20211;-59
2022/05/23 04:59:39;;;;;;;1.30;1.20;;;13.80;91.80;;;;;;5067755;28;20578;-59
2022/05/23 05:02:13;;;;;;;1.50;1.40;;;13.80;91.90;;;;;;5067775;28;20207;-59
2022/05/23 05:04:42;;;;;;;1.70;1.60;;;13.80;92.00;;;;;;5067093;28;20688;-59
2022/05/23 05:07:10;;;;;;;3.20;1.90;;;13.90;92.20;;;;;;5081498;28;20218;-58
2022/05/23 05:09:37;;;;;;;2.90;1.73;;;14.00;92.70;;;;;;5058870;28;20714;-58
2022/05/23 05:12:08;;;;;;;2.27;2.07;;;14.00;92.40;;;;;;5067289;28;20204;-59
2022/05/23 05:14:40;;;;;;;3.23;2.20;;;14.10;92.50;;;;;;5067086;28;20307;-59
2022/05/23 05:17:09;;;;;;;2.60;2.10;;;14.10;92.50;;;;;;5067787;28;20235;-59
2022/05/23 05:19:38;;;;;;;1.87;1.77;;;14.10;92.60;;;;;;5067243;28;20272;-59
2022/05/23 05:22:25;;;;;;;1.93;1.83;;;14.10;92.60;;;;;;5067504;28;20226;-59
2022/05/23 05:25:17;;;;;;;1.93;1.83;;;14.20;92.70;;;;;;5058098;28;20250;-59
2022/05/23 05:28:00;;;;;;;1.77;1.63;;;14.20;92.80;;;;;;5099124;28;20637;-59
2022/05/23 05:30:27;;;;;;;2.70;2.50;;;14.20;92.80;;;;;;5069131;28;20195;-58
2022/05/23 05:33:00;;;;;;;2.03;1.90;;;14.20;92.90;;;;;;5067158;28;20208;-59
2022/05/23 05:35:32;;;;;;;2.40;1.73;;;14.30;93.00;;;;;;5069344;28;20290;-59
2022/05/23 05:38:05;;;;;;;1.60;1.50;;;14.30;93.00;;;;;;5053605;28;20884;-59
2022/05/23 05:40:36;;;;;;;1.73;1.63;;;14.30;93.00;;;;;;5067239;28;20672;-59
2022/05/23 05:43:09;;;;;;;1.93;1.67;;;14.30;93.10;;;;;;5066934;28;20206;-59
2022/05/23 05:45:40;;;;;;;1.83;1.50;;;14.30;93.20;;;;;;5068844;28;20254;-58
2022/05/23 05:48:20;;;;;;;2.63;1.90;;;14.30;93.20;;;;;;5067104;28;20726;-59
2022/05/23 05:50:49;;;;;;;2.60;2.17;;;14.40;93.30;;;;;;5068458;28;20274;-58
2022/05/23 05:53:24;;;;;;;1.80;1.50;;;14.40;93.30;;;;;;5099356;28;20200;-58
2022/05/23 05:55:55;;;;;;;2.07;1.87;;;14.40;93.20;;;;;;5067659;28;20211;-59
2022/05/23 05:58:24;;;;;;;2.00;1.90;;;14.50;93.30;;;;;;5100422;28;20568;-60
2022/05/23 06:00:55;;;;;;;2.87;2.40;;;14.50;93.30;;;;;;5067064;28;20215;-59
2022/05/23 06:03:25;;;;;;;2.10;2.00;;;14.60;93.40;;;;;;5068557;28;20238;-60
2022/05/23 06:11:46;;;;;;;4.30;2.80;;;14.60;93.50;;;;;;5066849;28;20200;-59
2022/05/23 06:14:18;;;;;;;4.60;3.30;;;14.60;93.50;;;;;;5066740;28;20758;-59
2022/05/23 06:16:52;;;;;;;3.30;2.77;;;14.70;93.70;;;;;;5071010;28;20311;-59
2022/05/23 06:19:29;;;;;;;3.20;2.90;;;14.70;93.70;;;;;;5104442;28;20302;-59
2022/05/23 06:22:17;;;;;;;4.57;3.53;;;14.70;93.80;;;;;;5061479;28;20573;-59
2022/05/23 06:25:18;;;;;;;3.20;2.90;;;14.70;93.90;;;;;;5071574;28;20196;-59
2022/05/23 06:27:47;;;;;;;3.30;2.80;;;14.70;93.90;;;;;;5070581;28;20227;-59
2022/05/23 06:30:18;;;;;;;4.83;3.90;;;14.70;93.80;;;;;;5070787;28;20275;-59
2022/05/23 06:33:07;;;;;;;5.27;3.60;;;14.80;93.80;;;;;;5070110;28;20671;-59
2022/05/23 06:35:45;;;;;;;2.50;2.30;;;14.80;93.70;;;;;;5070113;28;20703;-59
2022/05/23 06:38:12;;;;;;;2.57;2.00;;;14.80;93.60;;;;;;5068566;28;20200;-59
2022/05/23 06:40:51;;;;;;;2.37;2.17;;;14.80;93.60;;;;;;5071717;28;20194;-59
2022/05/23 06:43:38;;;;;;;3.93;2.33;;;14.90;93.60;;;;;;5060711;28;20445;-59
2022/05/23 06:46:23;;;;;;;1.80;1.70;;;15.00;93.50;;;;;;5071223;28;20334;-59
2022/05/23 06:49:09;;;;;;;2.50;2.30;;;15.10;93.50;;;;;;5071748;28;20203;-58
2022/05/23 06:51:49;;;;;;;4.37;2.60;;;15.10;93.40;;;;;;5070138;28;20204;-58
2022/05/23 06:54:18;;;;;;;4.90;3.20;;;15.10;93.30;;;;;;5068345;28;20307;-59
2022/05/23 06:56:51;;;;;;;3.93;3.10;;;15.10;93.00;;;;;;5070201;28;20210;-59
2022/05/23 06:59:22;;;;;;;3.40;2.67;;;15.20;92.70;;;;;;5103757;28;20670;-59
2022/05/23 07:01:50;;;;;;;2.67;2.47;;;15.20;92.50;;;;;;5070196;28;21096;-59
2022/05/23 07:13:02;;;;;;;2.60;2.27;;;15.50;91.70;;;;;;5069820;28;20193;-59
2022/05/23 07:15:38;;;;;;;2.33;2.13;;;15.60;91.60;;;;;;5098164;28;20278;-59
2022/05/23 07:18:08;;;;;;;5.57;2.87;;;15.60;91.50;;;;;;5069237;28;20668;-59
2022/05/23 07:20:42;;;;;;;3.47;2.60;;;15.60;91.30;;;;;;5103065;28;20201;-60
2022/05/23 07:23:30;;;;;;;4.47;3.13;;;15.70;91.10;;;;;;5056395;28;20278;-59
2022/05/23 07:26:16;;;;;;;3.70;2.90;;;15.70;90.70;;;;;;5103799;27;20330;-59
2022/05/23 07:28:55;;;;;;;3.00;2.60;;;15.80;90.60;;;;;;5049313;28;20273;-59
2022/05/23 07:31:27;;;;;;;2.27;2.07;;;15.90;90.70;;;;;;5094458;28;20702;-59
2022/05/23 07:33:55;;;;;;;1.93;1.77;;;16.00;90.60;;;;;;5103333;28;20278;-59
2022/05/23 07:36:22;;;;;;;2.60;1.97;;;16.10;90.30;;;;;;5068967;28;20208;-59
2022/05/23 07:38:51;;;;;;;1.60;1.50;;;16.10;90.00;;;;;;5068058;28;20232;-59
2022/05/23 07:41:39;;;;;;;1.70;1.60;;;16.20;90.10;;;;;;5069837;28;20236;-59
2022/05/23 07:44:09;;;;;;;1.40;1.30;;;16.20;89.10;;;;;;5103282;28;20730;-59
2022/05/23 07:46:37;;;;;;;1.60;1.37;;;16.40;89.10;;;;;;5101663;28;20255;-59
2022/05/23 07:49:06;;;;;;;3.80;1.97;;;16.40;89.00;;;;;;5102569;28;20286;-59
2022/05/23 07:51:35;;;;;;;2.87;2.00;;;16.50;88.70;;;;;;5068439;28;20213;-59
2022/05/23 08:02:43;;;;;;;1.90;1.40;;;16.70;87.50;;;;;;5070200;28;20201;-59
2022/05/23 08:05:18;;;;;;;5.77;1.47;;;16.80;86.90;;;;;;5066344;28;20584;-59
2022/05/23 08:07:50;;;;;;;1.13;1.10;;;16.80;85.70;;;;;;5066775;28;20282;-59
2022/05/23 08:10:20;;;;;;;1.60;1.20;;;16.90;85.10;;;;;;5068298;28;20209;-59
2022/05/23 08:12:52;;;;;;;1.00;1.00;;;16.90;84.40;;;;;;5102519;28;20250;-59
2022/05/23 08:15:22;;;;;;;1.53;1.23;;;17.00;84.40;;;;;;5068685;28;20224;-60
2022/05/23 08:17:55;;;;;;;0.90;0.90;;;17.10;84.10;;;;;;5068421;28;20205;-59
2022/05/23 08:20:31;;;;;;;1.00;1.00;;;17.20;83.80;;;;;;5068873;28;20219;-59
2022/05/23 08:22:59;;;;;;;0.90;0.90;;;17.30;83.30;;;;;;5055410;28;20205;-59
2022/05/23 08:25:39;;;;;;;0.80;0.80;;;17.30;83.00;;;;;;5067938;28;20789;-59
2022/05/23 08:28:06;;;;;;;1.20;1.10;;;17.40;83.10;;;;;;5101038;28;20193;-59
2022/05/23 08:30:36;;;;;;;0.90;0.90;;;17.40;82.80;;;;;;5102561;28;20554;-59
2022/05/23 08:33:21;;;;;;;1.07;0.97;;;17.50;82.60;;;;;;5068047;28;20202;-59
2022/05/23 08:35:50;;;;;;;1.00;1.00;;;17.60;82.30;;;;;;5102078;28;20221;-59
2022/05/23 08:38:22;;;;;;;2.40;0.97;;;17.60;82.20;;;;;;5100327;28;20694;-59
2022/05/23 08:41:18;;;;;;;1.07;0.90;;;17.70;82.10;;;;;;5101689;28;20201;-59
2022/05/23 08:44:05;;;;;;;1.00;0.93;;;17.80;81.60;;;;;;5061592;28;20200;-59
2022/05/23 08:46:47;;;;;;;3.80;1.30;;;17.90;81.20;;;;;;5097155;28;20211;-59
2022/05/23 08:49:28;;;;;;;1.80;0.80;;;17.90;80.60;;;;;;5067777;28;20296;-59
2022/05/23 08:52:07;;;;;;;0.70;0.70;;;18.00;80.20;;;;;;5067724;28;20209;-59
2022/05/23 08:54:45;;;;;;;1.43;0.70;;;18.10;80.00;;;;;;5067433;28;20264;-59
2022/05/23 08:57:35;;;;;;;0.82;0.80;;;18.10;79.60;;;;;;5063593;28;20228;-59
2022/05/23 09:00:07;;;;;;;1.00;1.00;;;18.20;79.10;;;;;;5068037;28;20203;-58
2022/05/23 09:02:45;;;;;;;1.27;1.17;;;18.20;77.30;;;;;;5067578;28;20649;-58
2022/05/23 09:05:32;;;;;;;1.10;1.10;;;18.20;76.20;;;;;;5067900;28;20200;-58
2022/05/23 09:08:02;;;;;;;1.10;1.00;;;18.10;75.80;;;;;;5066758;28;20647;-59
2022/05/23 09:10:36;;;;;;;2.67;1.00;;;18.10;75.90;;;;;;5068679;28;20287;-59
2022/05/23 09:13:06;;;;;;;1.45;1.35;;;18.20;75.70;;;;;;5069076;28;20237;-59
2022/05/23 09:15:33;;;;;;;1.13;1.08;;;18.30;74.40;;;;;;5069355;28;20216;-59
2022/05/23 09:18:06;;;;;;;1.50;1.40;;;18.30;74.40;;;;;;5068988;28;20201;-59
2022/05/23 09:20:38;;;;;;;1.33;0.93;;;18.30;73.90;;;;;;5068660;28;20192;-59
2022/05/23 09:23:10;;;;;;;1.00;0.95;;;18.40;73.70;;;;;;5056713;28;20191;-59
2022/05/23 09:25:39;;;;;;;1.20;1.10;;;18.50;73.90;;;;;;5057666;28;20734;-59
2022/05/23 09:28:29;;;;;;;0.60;0.60;;;18.50;73.90;;;;;;5069059;28;20603;-59
2022/05/23 09:31:00;;;;;;;3.55;0.90;;;18.60;73.70;;;;;;5069830;28;20203;-59
2022/05/23 09:33:31;;;;;;;0.80;0.80;;;18.70;72.90;;;;;;5068851;28;20196;-59
2022/05/23 09:36:10;;;;;;;1.20;1.10;;;18.70;72.50;;;;;;5068275;28;20231;-59
2022/05/23 09:38:47;;;;;;;0.60;0.60;;;18.70;72.40;;;;;;5065087;28;20202;-59
2022/05/23 09:49:53;;;;;;;0.80;0.80;;;19.10;72.10;;;;;;5064457;28;20253;-59
2022/05/23 09:52:27;;;;;;;0.80;0.80;;;19.20;71.90;;;;;;5102612;27;20181;-59
2022/05/23 09:54:57;;;;;;;0.90;0.90;;;19.20;71.80;;;;;;5073129;28;20561;-59
2022/05/23 09:57:28;;;;;;;0.70;0.70;;;19.30;71.90;;;;;;5072455;28;20702;-59
2022/05/23 09:59:59;;;;;;;0.60;0.60;;;19.30;71.60;;;;;;5072952;28;20196;-59
2022/05/23 10:02:36;;;;;;;1.20;0.80;;;19.40;71.40;;;;;;5072139;28;20200;-59
2022/05/23 10:05:11;;;;;;;0.95;0.95;;;19.40;70.80;;;;;;5072331;28;20649;-59
2022/05/23 10:07:39;;;;;;;1.20;1.02;;;19.40;70.40;;;;;;5070409;28;20279;-59
2022/05/23 10:10:23;;;;;;;3.10;1.00;;;19.40;69.80;;;;;;5072616;28;20676;-59
2022/05/23 10:13:23;;;;;;;3.67;1.20;;;19.30;69.50;;;;;;5066859;28;20193;-59
2022/05/23 10:15:53;;;;;;;1.25;1.23;;;19.30;69.10;;;;;;5072196;28;20205;-59
2022/05/23 10:18:24;;;;;;;1.10;1.10;;;19.20;69.10;;;;;;5070976;28;20194;-59
2022/05/23 10:20:53;;;;;;;1.05;1.05;;;19.20;69.10;;;;;;5070558;28;20205;-58
2022/05/23 10:23:25;;;;;;;1.17;1.08;;;19.20;69.10;;;;;;5066773;28;20194;-58
2022/05/23 10:26:01;;;;;;;4.03;1.13;;;19.20;68.90;;;;;;5072782;28;20193;-59
2022/05/23 10:28:36;;;;;;;1.30;1.17;;;19.20;68.40;;;;;;5071886;28;20196;-59
2022/05/23 10:31:09;;;;;;;0.90;0.90;;;19.20;68.30;;;;;;5072518;28;20203;-59
2022/05/23 10:33:39;;;;;;;1.45;1.35;;;19.20;68.60;;;;;;5071572;28;20232;-59
2022/05/23 10:36:13;;;;;;;1.25;1.10;;;19.30;68.80;;;;;;5071854;28;20205;-59
2022/05/23 10:44:33;;;;;;;1.50;1.15;;;19.30;67.30;;;;;;5071372;28;20208;-59
2022/05/23 10:47:15;;;;;;;1.00;1.00;;;19.30;67.30;;;;;;5071911;28;20734;-59
2022/05/23 10:49:54;;;;;;;1.17;1.10;;;19.20;67.80;;;;;;5071887;28;20201;-59
2022/05/23 10:52:30;;;;;;;1.27;0.80;;;19.30;68.30;;;;;;5068967;28;20201;-59
2022/05/23 10:55:02;;;;;;;1.25;0.93;;;19.30;68.40;;;;;;5071848;28;20231;-59
2022/05/23 10:57:45;;;;;;;0.80;0.80;;;19.50;68.60;;;;;;5071345;28;20201;-59
2022/05/23 11:00:17;;;;;;;0.90;0.90;;;19.50;68.50;;;;;;5072019;28;20224;-59
2022/05/23 11:03:00;;;;;;;0.90;0.90;;;19.60;68.10;;;;;;5069780;28;20205;-59
2022/05/23 11:05:32;;;;;;;1.23;1.00;;;19.70;68.30;;;;;;5066153;28;20189;-59
2022/05/23 11:08:23;;;;;;;0.80;0.80;;;19.70;68.00;;;;;;5069211;28;20211;-59
2022/05/23 11:10:56;;;;;;;0.80;0.80;;;19.70;67.90;;;;;;5068131;28;20254;-59
2022/05/23 11:13:36;;;;;;;0.93;0.93;;;19.80;68.00;;;;;;5070604;28;20277;-59
2022/05/23 11:16:13;;;;;;;1.42;0.88;;;19.80;68.00;;;;;;5067540;28;20213;-59
2022/05/23 11:19:03;;;;;;;0.90;0.90;;;19.90;68.00;;;;;;5070842;28;20675;-59
2022/05/23 11:21:42;;;;;;;0.80;0.80;;;19.90;67.70;;;;;;5068645;28;20204;-59
2022/05/23 11:24:14;;;;;;;2.45;0.90;;;20.00;67.50;;;;;;5059340;28;20605;-60
2022/05/23 11:26:46;;;;;;;1.40;1.00;;;19.90;67.10;;;;;;5071454;28;20219;-59
2022/05/23 11:34:57;;;;;;;1.08;1.02;;;19.90;67.20;;;;;;5070897;28;20789;-59
2022/05/23 11:37:48;;;;;;;0.80;0.80;;;20.00;67.10;;;;;;5068746;28;21008;-60
2022/05/23 11:40:51;;;;;;;1.10;1.05;;;20.00;67.90;;;;;;5071246;28;20224;-60
2022/05/23 11:43:23;;;;;;;1.10;1.10;;;20.00;66.90;;;;;;5064719;28;20653;-59
2022/05/23 11:46:03;;;;;;;1.27;1.17;;;20.00;66.80;;;;;;5071105;28;20204;-59
2022/05/23 11:48:50;;;;;;;1.05;0.95;;;19.90;67.50;;;;;;5070472;28;20248;-59
2022/05/23 11:51:27;;;;;;;0.93;0.93;;;19.90;66.80;;;;;;5069049;28;20228;-59
2022/05/23 11:53:58;;;;;;;1.92;0.93;;;19.90;66.90;;;;;;5068752;28;20201;-59
2022/05/23 11:56:38;;;;;;;0.80;0.80;;;19.90;66.90;;;;;;5070941;28;20197;-59
2022/05/23 11:59:09;;;;;;;0.90;0.90;;;20.00;66.80;;;;;;5070429;28;20220;-59
2022/05/23 12:01:37;;;;;;;1.02;1.02;;;20.00;66.70;;;;;;5069115;28;20213;-59
2022/05/23 12:04:15;;;;;;;0.80;0.80;;;20.10;66.50;;;;;;5068081;28;20197;-59
2022/05/23 12:06:48;;;;;;;0.90;0.90;;;20.10;66.60;;;;;;5070056;28;20707;-59
2022/05/23 12:09:28;;;;;;;0.70;0.70;;;20.20;66.60;;;;;;5068373;28;20688;-60
2022/05/23 12:12:46;;;;;;;1.08;1.08;;;20.20;66.50;;;;;;5069701;28;20203;-60
2022/05/23 12:15:47;;;;;;;0.80;0.80;;;20.20;66.10;;;;;;5069038;28;20546;-60
2022/05/23 12:18:33;;;;;;;0.80;0.80;;;20.20;66.10;;;;;;5069893;28;20181;-59
2022/05/23 12:21:03;;;;;;;1.02;1.02;;;20.20;66.10;;;;;;5069711;28;20266;-59
2022/05/23 12:23:35;;;;;;;0.95;0.95;;;20.10;65.90;;;;;;5054800;28;20216;-60
2022/05/23 12:26:22;;;;;;;1.65;0.90;;;20.10;66.00;;;;;;5070333;28;20189;-59
2022/05/23 12:28:53;;;;;;;0.90;0.90;;;20.20;66.30;;;;;;5056474;28;20201;-59
2022/05/23 12:31:21;;;;;;;3.35;0.93;;;20.20;66.10;;;;;;5069873;28;20717;-60
2022/05/23 12:34:07;;;;;;;1.02;1.02;;;20.20;65.80;;;;;;5069721;28;20221;-59
2022/05/23 12:36:37;;;;;;;0.70;0.70;;;20.10;65.60;;;;;;5069249;28;20702;-60
2022/05/23 12:39:41;;;;;;;1.00;0.95;;;20.10;65.80;;;;;;5060116;28;20184;-59
2022/05/23 12:42:20;;;;;;;1.00;1.00;;;20.10;65.70;;;;;;5067592;28;20283;-59
2022/05/23 12:45:21;;;;;;;0.73;0.73;;;20.20;65.80;;;;;;5068300;28;20216;-59
2022/05/23 12:48:10;;;;;;;0.70;0.70;;;20.20;65.80;;;;;;5065090;28;20239;-59
2022/05/23 12:50:53;;;;;;;0.80;0.80;;;20.20;65.70;;;;;;5067850;28;20229;-60
2022/05/23 12:53:38;;;;;;;2.38;0.82;;;20.20;66.00;;;;;;5063603;28;20209;-59
2022/05/23 12:56:38;;;;;;;0.73;0.73;;;20.20;66.00;;;;;;5069544;28;20291;-59
2022/05/23 12:59:35;;;;;;;1.00;1.00;;;20.30;66.10;;;;;;5061260;28;20754;-60
2022/05/23 13:02:08;;;;;;;1.23;0.95;;;20.30;65.50;;;;;;5068809;28;20193;-59
2022/05/23 13:04:47;;;;;;;0.90;0.90;;;20.30;65.30;;;;;;5065671;28;20220;-59
2022/05/23 13:07:23;;;;;;;0.88;0.88;;;20.20;65.20;;;;;;5067642;28;20189;-59
2022/05/23 13:09:56;;;;;;;0.90;0.90;;;20.10;65.20;;;;;;5069841;28;20222;-59
2022/05/23 13:12:28;;;;;;;0.90;0.90;;;20.10;65.50;;;;;;5067548;28;20201;-60
2022/05/23 13:14:58;;;;;;;1.00;0.80;;;20.10;65.90;;;;;;5069997;28;20255;-60
2022/05/23 13:17:38;;;;;;;1.77;0.90;;;20.20;66.00;;;;;;5068178;28;20213;-60
2022/05/23 13:23:03;;;;;;;1.05;1.00;;;20.20;66.10;;;;;;5054663;28;20197;-59
2022/05/23 13:25:33;;;;;;;1.00;1.00;;;20.30;66.20;;;;;;5055931;28;20189;-59
2022/05/23 13:28:01;;;;;;;0.80;0.80;;;20.20;66.00;;;;;;5069008;28;20324;-59
2022/05/23 13:30:31;;;;;;;2.10;1.10;;;20.20;66.10;;;;;;5069379;28;20284;-60
2022/05/23 13:33:20;;;;;;;1.23;1.10;;;20.20;66.20;;;;;;5068966;28;20323;-60
2022/05/23 13:35:54;;;;;;;0.93;0.93;;;20.10;66.20;;;;;;5053517;28;20692;-60
2022/05/23 13:38:25;;;;;;;2.40;1.00;;;20.00;66.10;;;;;;5067534;28;20548;-60
2022/05/23 13:40:55;;;;;;;1.25;1.15;;;20.10;66.00;;;;;;5068667;28;20221;-59
2022/05/23 13:43:25;;;;;;;1.10;0.80;;;20.00;66.10;;;;;;5068676;28;20192;-59
2022/05/23 13:46:07;;;;;;;2.35;0.90;;;20.00;66.30;;;;;;5069568;28;20192;-59
2022/05/23 13:48:40;;;;;;;0.85;0.85;;;20.00;66.50;;;;;;5068716;28;20233;-59
2022/05/23 13:51:13;;;;;;;1.00;1.00;;;20.00;66.80;;;;;;5068666;28;20192;-59
2022/05/23 13:53:45;;;;;;;1.20;1.15;;;20.00;67.20;;;;;;5059213;28;20220;-59
2022/05/23 13:56:14;;;;;;;1.05;1.00;;;20.00;67.30;;;;;;5062842;28;20213;-60
2022/05/23 13:58:46;;;;;;;1.60;1.00;;;19.90;67.30;;;;;;5068771;28;20765;-60
2022/05/23 14:01:21;;;;;;;0.93;0.93;;;19.90;67.50;;;;;;5069278;28;20197;-59
2022/05/23 14:03:54;;;;;;;0.93;0.90;;;19.90;67.50;;;;;;5067912;28;20380;-59
2022/05/23 14:06:27;;;;;;;0.90;0.90;;;19.90;67.60;;;;;;5068349;28;20580;-59
2022/05/23 14:08:59;;;;;;;2.55;0.90;;;19.90;67.70;;;;;;5066597;28;20189;-59
2022/05/23 14:11:30;;;;;;;1.00;1.00;;;19.90;67.70;;;;;;5068475;28;20557;-59
2022/05/23 14:14:01;;;;;;;1.10;1.10;;;19.90;67.70;;;;;;5068498;28;20197;-59
2022/05/23 14:16:29;;;;;;;1.73;0.95;;;19.80;67.80;;;;;;5068383;28;20616;-59
2022/05/23 14:19:13;;;;;;;0.90;0.90;;;19.80;68.10;;;;;;5066658;28;20198;-59
2022/05/23 14:21:41;;;;;;;0.80;0.80;;;19.80;68.40;;;;;;5066595;28;20201;-60
2022/05/23 14:24:18;;;;;;;1.15;1.10;;;19.80;68.60;;;;;;5059138;28;20197;-59
2022/05/23 14:27:05;;;;;;;1.50;1.00;;;19.80;68.90;;;;;;5068493;28;20205;-60
2022/05/23 14:29:34;;;;;;;1.30;1.20;;;19.70;68.90;;;;;;5068561;28;20200;-59
2022/05/23 14:32:02;;;;;;;1.10;1.10;;;19.70;68.90;;;;;;5067937;28;20628;-59